Time;durP1;ratioP1;P1;durP2;ratioP2;P2;SDS_P1;SDS_P2;PMS_P1;PMS_P2;Temp;Humidity;BMP_temperature;BMP_pressure;BME280_temperature;BME280_humidity;BME280_pressure;Samples;Min_cycle;Max_cycle;Signal;HPM_P1;HPM_P2
2023/05/30 00:00:03;;;;;;;23.53;13.40;;;8.10;99.90;7.30;100897;;;;557666;251;24091;-75
2023/05/30 00:02:31;;;;;;;38.50;16.73;;;8.20;99.90;7.40;100894;;;;557257;251;24131;-74
2023/05/30 00:04:59;;;;;;;39.63;23.93;;;8.40;99.90;7.40;100891;;;;557236;251;24103;-74
2023/05/30 00:07:26;;;;;;;25.30;9.67;;;8.30;99.90;7.50;100897;;;;557706;251;24117;-78
2023/05/30 00:09:55;;;;;;;29.37;11.30;;;8.30;99.90;7.50;100896;;;;560713;251;24206;-74
2023/05/30 00:12:23;;;;;;;19.53;9.73;;;8.20;99.90;7.50;100899;;;;557729;251;24162;-76
2023/05/30 00:14:51;;;;;;;27.50;17.77;;;8.50;99.90;7.50;100901;;;;557749;251;24168;-75
2023/05/30 00:17:20;;;;;;;33.70;17.27;;;8.30;99.90;7.50;100903;;;;557621;251;24151;-74
2023/05/30 00:19:49;;;;;;;24.13;10.13;;;8.30;99.90;7.50;100890;;;;557576;251;24109;-74
2023/05/30 00:22:19;;;;;;;24.77;8.77;;;8.20;99.90;7.50;100889;;;;561829;249;24154;-79
2023/05/30 00:24:46;;;;;;;34.00;18.43;;;8.30;99.90;7.50;100897;;;;559053;251;24117;-79
2023/05/30 00:27:14;;;;;;;23.77;10.73;;;8.10;99.90;7.50;100900;;;;558824;251;24106;-79
2023/05/30 00:29:41;;;;;;;42.70;23.90;;;8.20;99.90;7.50;100894;;;;558914;251;24114;-81
2023/05/30 00:32:10;;;;;;;33.20;18.33;;;8.30;99.90;7.50;100894;;;;562751;249;24115;-75
2023/05/30 00:34:38;;;;;;;50.13;27.07;;;8.20;99.90;7.50;100894;;;;558374;251;24248;-74
2023/05/30 00:37:09;;;;;;;63.53;35.00;;;8.40;99.90;7.40;100892;;;;558595;251;24111;-73
2023/05/30 00:39:36;;;;;;;42.30;24.47;;;8.10;99.90;7.40;100889;;;;562605;251;24165;-77
2023/05/30 00:42:04;;;;;;;32.83;21.90;;;8.30;99.90;7.40;100884;;;;558060;251;24170;-76
2023/05/30 00:44:32;;;;;;;44.93;25.77;;;8.00;99.90;7.40;100885;;;;562080;250;24140;-75
2023/05/30 00:47:01;;;;;;;25.30;14.57;;;8.30;99.90;7.40;100889;;;;553289;251;35297;-72
2023/05/30 00:49:32;;;;;;;29.67;11.27;;;8.20;99.90;7.40;100890;;;;562399;251;25412;-73
2023/05/30 00:51:57;;;;;;;22.43;7.70;;;8.30;99.90;7.30;100892;;;;561963;249;24100;-75
2023/05/30 00:54:25;;;;;;;33.63;16.57;;;8.00;99.90;7.30;100890;;;;560900;251;24131;-75
2023/05/30 00:56:53;;;;;;;35.77;23.67;;;8.10;99.90;7.20;100888;;;;561864;249;24141;-74
2023/05/30 00:59:22;;;;;;;15.33;7.57;;;8.00;99.90;7.10;100883;;;;561653;251;24127;-73
2023/05/30 01:01:51;;;;;;;34.90;22.47;;;8.00;99.90;7.10;100890;;;;557544;251;24127;-77
2023/05/30 01:04:19;;;;;;;51.77;28.87;;;7.70;99.90;7.00;100882;;;;562142;251;24165;-77
2023/05/30 01:06:48;;;;;;;43.10;29.63;;;7.80;99.90;6.90;100889;;;;557819;251;24081;-81
2023/05/30 01:09:16;;;;;;;53.97;45.77;;;7.80;99.90;6.90;100890;;;;557485;251;24113;-78
2023/05/30 01:11:45;;;;;;;69.57;63.97;;;7.70;99.90;6.80;100893;;;;561653;251;24103;-76
2023/05/30 01:14:40;;;;;;;20.83;12.70;;;7.70;99.90;6.80;100881;;;;560466;250;24178;-75
2023/05/30 01:17:18;;;;;;;53.73;49.33;;;7.60;99.90;6.70;100889;;;;564309;251;25164;-74
2023/05/30 01:19:56;;;;;;;24.80;9.53;;;7.60;99.90;6.70;100887;;;;561634;251;24103;-75
2023/05/30 01:22:48;;;;;;;17.50;6.83;;;7.20;99.90;6.70;100887;;;;561397;251;24112;-74
2023/05/30 01:25:22;;;;;;;19.10;6.40;;;7.50;99.90;6.70;100891;;;;562522;250;24094;-80
2023/05/30 01:28:15;;;;;;;28.53;15.73;;;7.50;99.90;6.60;100898;;;;562827;251;24110;-77
2023/05/30 01:30:34;;;;;;;57.30;53.10;;;7.50;99.90;6.60;100895;;;;561840;251;24173;-78
2023/05/30 01:33:03;;;;;;;29.73;18.30;;;7.60;99.90;6.60;100899;;;;562690;250;24107;-78
2023/05/30 01:35:31;;;;;;;89.77;82.83;;;7.60;99.90;6.60;100895;;;;563192;251;24135;-73
2023/05/30 01:37:59;;;;;;;55.23;50.47;;;7.40;99.90;6.60;100895;;;;562610;251;24095;-74
2023/05/30 01:40:28;;;;;;;121.83;111.33;;;7.10;99.90;6.60;100888;;;;558837;251;24097;-75
2023/05/30 01:43:08;;;;;;;80.07;73.33;;;7.40;99.90;6.60;100895;;;;562000;250;24098;-75
2023/05/30 01:45:51;;;;;;;36.10;30.20;;;7.20;99.90;6.60;100876;;;;561751;251;24112;-82
2023/05/30 01:48:40;;;;;;;59.83;54.60;;;7.40;99.90;6.50;100884;;;;563101;250;24101;-75
2023/05/30 01:51:08;;;;;;;79.10;72.23;;;7.70;99.90;6.50;100882;;;;561838;250;24133;-74
2023/05/30 01:53:37;;;;;;;92.57;84.40;;;7.40;99.90;6.50;100876;;;;561447;251;24147;-74
2023/05/30 01:56:05;;;;;;;31.27;19.40;;;7.60;99.90;6.50;100871;;;;561999;250;24131;-75
2023/05/30 01:58:32;;;;;;;18.87;6.60;;;7.10;99.90;6.60;100876;;;;562480;251;24165;-80
2023/05/30 02:01:00;;;;;;;35.30;8.33;;;7.20;99.90;6.50;100869;;;;562293;250;24169;-81
2023/05/30 02:03:29;;;;;;;24.53;6.97;;;7.40;99.90;6.50;100874;;;;570837;251;24118;-79
2023/05/30 02:05:59;;;;;;;24.67;8.20;;;7.70;99.90;6.50;100870;;;;562503;250;24185;-75
2023/05/30 02:08:25;;;;;;;34.10;8.67;;;7.40;99.90;6.50;100873;;;;558421;250;24130;-75
2023/05/30 02:10:53;;;;;;;17.43;5.43;;;7.30;99.90;6.50;100869;;;;557484;250;24191;-75
2023/05/30 02:13:21;;;;;;;21.03;5.47;;;7.20;99.90;6.50;100876;;;;557271;251;24112;-75
2023/05/30 02:15:50;;;;;;;25.47;7.43;;;7.40;99.90;6.50;100872;;;;552816;251;35362;-75
2023/05/30 02:18:19;;;;;;;23.15;5.93;;;7.50;99.90;6.50;100880;;;;552470;251;35346;-74
2023/05/30 02:20:47;;;;;;;21.42;5.82;;;7.50;99.90;6.50;100885;;;;552360;251;35297;-73
2023/05/30 02:23:16;;;;;;;16.87;5.07;;;7.70;99.90;6.60;100876;;;;557240;251;24190;-75
2023/05/30 02:25:44;;;;;;;17.50;5.50;;;7.50;99.90;6.60;100882;;;;557229;251;24146;-75
2023/05/30 02:28:16;;;;;;;20.60;6.17;;;7.40;99.90;6.60;100883;;;;557564;251;24191;-73
2023/05/30 02:30:40;;;;;;;24.53;6.33;;;7.40;99.90;6.60;100895;;;;560972;251;24113;-74
2023/05/30 02:33:08;;;;;;;14.57;3.77;;;7.70;99.90;6.60;100890;;;;557264;251;24080;-74
2023/05/30 02:35:37;;;;;;;26.63;6.53;;;7.50;99.90;6.60;100891;;;;557334;251;24115;-76
2023/05/30 02:38:05;;;;;;;13.20;4.53;;;7.60;99.90;6.60;100894;;;;557249;251;24104;-75
2023/05/30 02:40:32;;;;;;;22.50;6.60;;;7.40;99.90;6.70;100899;;;;557201;251;24140;-75
2023/05/30 02:43:01;;;;;;;18.40;5.60;;;7.50;99.90;6.70;100903;;;;557351;251;24091;-76
2023/05/30 02:45:29;;;;;;;8.77;3.27;;;7.60;99.90;6.70;100899;;;;557604;249;24081;-74
2023/05/30 02:47:58;;;;;;;15.60;4.77;;;7.50;99.90;6.70;100905;;;;558644;251;24091;-74
2023/05/30 02:50:26;;;;;;;16.10;4.33;;;7.50;99.90;6.70;100900;;;;558266;251;24088;-76
2023/05/30 02:52:54;;;;;;;10.20;3.63;;;7.50;99.90;6.80;100906;;;;558358;250;24209;-76
2023/05/30 02:55:23;;;;;;;16.20;5.23;;;7.80;99.90;6.80;100907;;;;558775;251;24177;-78
2023/05/30 02:57:51;;;;;;;13.20;4.50;;;7.60;99.90;6.80;100901;;;;558298;251;24180;-75
2023/05/30 03:00:20;;;;;;;14.57;4.63;;;7.70;99.90;6.90;100903;;;;562300;251;24088;-75
2023/05/30 03:02:49;;;;;;;16.47;4.77;;;7.70;99.90;6.90;100904;;;;557997;251;24159;-76
2023/05/30 03:05:17;;;;;;;22.80;5.97;;;7.20;99.90;7.00;100909;;;;558291;251;24166;-76
2023/05/30 03:07:45;;;;;;;21.42;5.75;;;8.00;99.90;7.10;100900;;;;553345;251;35389;-79
2023/05/30 03:10:13;;;;;;;20.63;6.57;;;7.90;99.90;7.10;100898;;;;562463;251;24084;-74
2023/05/30 03:12:41;;;;;;;21.40;6.57;;;7.90;99.90;7.20;100908;;;;557806;251;24101;-74
2023/05/30 03:15:13;;;;;;;20.27;7.27;;;7.90;99.90;7.30;100910;;;;558007;251;24131;-78
2023/05/30 03:17:38;;;;;;;18.17;10.03;;;8.10;99.90;7.40;100916;;;;561958;251;24228;-76
2023/05/30 03:20:08;;;;;;;18.80;5.23;;;8.20;99.90;7.50;100913;;;;561900;251;24094;-74
2023/05/30 03:22:38;;;;;;;20.70;5.37;;;8.50;99.90;7.90;100922;;;;561658;251;24122;-75
2023/05/30 03:25:06;;;;;;;16.97;5.43;;;9.40;99.90;8.70;100932;;;;561666;250;24144;-76
2023/05/30 03:27:38;;;;;;;23.47;8.30;;;10.20;99.90;9.60;100932;;;;564427;251;24100;-74
2023/05/30 03:30:05;;;;;;;23.17;9.23;;;10.50;99.90;10.50;100935;;;;560928;251;24100;-76
2023/05/30 03:32:36;;;;;;;35.17;22.73;;;11.80;99.90;11.30;100921;;;;561710;251;24141;-76
2023/05/30 03:35:05;;;;;;;35.90;22.97;;;12.70;99.90;12.20;100924;;;;562087;251;25221;-75
2023/05/30 03:37:32;;;;;;;29.17;19.57;;;13.40;99.90;12.90;100930;;;;570629;250;24106;-75
2023/05/30 03:40:01;;;;;;;21.40;9.27;;;14.20;99.90;13.60;100934;;;;562172;251;24072;-74
2023/05/30 03:42:29;;;;;;;18.13;8.10;;;14.90;99.90;14.30;100927;;;;562339;250;24079;-75
2023/05/30 03:44:57;;;;;;;45.77;37.57;;;15.60;99.90;14.90;100937;;;;562188;248;24095;-75
2023/05/30 03:47:25;;;;;;;37.43;33.60;;;16.30;99.90;15.50;100941;;;;561987;251;24133;-74
2023/05/30 03:49:53;;;;;;;29.47;20.40;;;16.50;99.90;16.10;100946;;;;562125;251;24085;-75
2023/05/30 03:52:21;;;;;;;22.27;8.87;;;17.50;99.90;16.60;100953;;;;562092;251;24077;-74
2023/05/30 03:54:50;;;;;;;31.57;15.43;;;17.70;99.90;17.10;100958;;;;561940;250;24089;-75
2023/05/30 03:57:18;;;;;;;24.00;7.47;;;18.30;99.90;17.70;100969;;;;562244;250;24065;-75
2023/05/30 03:59:50;;;;;;;46.00;26.27;;;19.00;99.90;18.30;100969;;;;562483;249;24091;-76
2023/05/30 04:02:15;;;;;;;34.07;16.63;;;20.00;99.90;19.00;100974;;;;562516;249;24126;-80
2023/05/30 04:04:42;;;;;;;26.50;15.70;;;20.40;99.90;19.60;100969;;;;562578;249;24084;-78
2023/05/30 04:07:11;;;;;;;21.20;11.73;;;21.10;95.60;20.30;100974;;;;562300;251;24092;-77
2023/05/30 04:09:39;;;;;;;16.47;13.10;;;21.80;95.60;20.90;100977;;;;562161;251;24084;-76
2023/05/30 04:12:07;;;;;;;15.83;7.73;;;22.10;93.30;21.30;100979;;;;562222;251;23157;-76
2023/05/30 04:14:35;;;;;;;15.50;6.37;;;22.60;91.30;21.90;100977;;;;562140;249;24122;-76
2023/05/30 04:17:03;;;;;;;22.33;9.40;;;23.40;83.70;22.60;100974;;;;561921;250;23132;-75
2023/05/30 04:19:31;;;;;;;21.97;11.23;;;24.10;83.90;23.00;100983;;;;561900;250;23132;-76
2023/05/30 04:21:59;;;;;;;29.60;17.40;;;24.50;78.70;23.50;100985;;;;561971;251;23120;-75
2023/05/30 04:24:31;;;;;;;31.07;22.73;;;24.70;77.40;24.00;100986;;;;561930;251;23120;-77
2023/05/30 04:26:55;;;;;;;43.03;39.87;;;25.20;73.40;24.40;100985;;;;561732;251;24112;-75
2023/05/30 04:29:23;;;;;;;43.47;39.93;;;25.90;67.50;24.90;100993;;;;561927;251;24116;-76
2023/05/30 04:31:51;;;;;;;64.40;59.50;;;26.50;68.60;25.50;100994;;;;561614;251;23125;-75
2023/05/30 04:34:19;;;;;;;35.70;31.97;;;27.00;66.00;25.90;100993;;;;561348;251;23105;-76
2023/05/30 04:36:48;;;;;;;26.92;14.23;;;27.50;61.10;26.50;101000;;;;561360;251;23165;-75
2023/05/30 04:39:16;;;;;;;21.30;7.47;;;28.30;61.40;27.10;101003;;;;561382;251;23183;-76
2023/05/30 04:41:43;;;;;;;19.55;8.40;;;28.80;59.10;27.80;101005;;;;561137;250;24147;-76
2023/05/30 04:44:11;;;;;;;16.23;4.40;;;29.50;56.70;28.40;101003;;;;561327;250;24113;-77
2023/05/30 04:46:46;;;;;;;22.62;8.65;;;30.20;54.60;28.90;101007;;;;561237;250;23109;-76
2023/05/30 04:49:08;;;;;;;20.33;6.30;;;30.50;53.90;29.60;101004;;;;561045;251;23160;-74
2023/05/30 04:51:37;;;;;;;24.40;6.18;;;31.20;53.00;30.00;101010;;;;557655;251;23121;-74
2023/05/30 04:54:05;;;;;;;19.35;7.15;;;31.60;50.60;30.30;101014;;;;561493;251;23093;-75
2023/05/30 04:56:32;;;;;;;20.67;5.93;;;32.60;50.40;30.90;101013;;;;561558;251;23121;-76
2023/05/30 04:59:00;;;;;;;21.73;7.50;;;32.60;48.40;31.50;101022;;;;561319;251;23142;-76
2023/05/30 05:01:28;;;;;;;24.98;6.97;;;33.30;47.30;32.20;101023;;;;561853;251;23109;-77
2023/05/30 05:04:00;;;;;;;30.25;11.15;;;33.80;46.00;32.70;101021;;;;561825;251;23101;-77
2023/05/30 05:06:28;;;;;;;15.98;5.53;;;34.30;45.10;33.20;101032;;;;570058;251;23144;-75
2023/05/30 05:08:53;;;;;;;13.98;6.45;;;34.80;44.30;33.60;101040;;;;557356;250;23196;-75
2023/05/30 05:11:21;;;;;;;10.75;4.40;;;35.40;43.00;34.20;101032;;;;562681;249;23117;-75
2023/05/30 05:13:49;;;;;;;18.42;4.68;;;35.90;42.70;34.90;101031;;;;562490;249;24113;-75
2023/05/30 05:16:17;;;;;;;17.33;5.32;;;36.50;42.00;35.50;101037;;;;562478;249;23112;-76
2023/05/30 05:18:46;;;;;;;20.92;5.32;;;37.10;41.20;36.00;101035;;;;562825;249;23100;-75
2023/05/30 05:21:14;;;;;;;19.70;5.40;;;37.50;39.70;36.40;101036;;;;562785;250;23086;-75
2023/05/30 05:23:42;;;;;;;16.52;5.03;;;38.00;38.90;37.10;101034;;;;562810;248;23086;-74
2023/05/30 05:26:11;;;;;;;23.92;7.20;;;38.50;38.50;37.50;101039;;;;562077;250;23096;-77
2023/05/30 05:28:39;;;;;;;17.77;5.12;;;38.80;36.70;37.80;101041;;;;561626;250;23171;-77
2023/05/30 05:31:07;;;;;;;17.85;4.62;;;38.60;36.10;38.00;101038;;;;561724;250;23170;-76
2023/05/30 05:33:35;;;;;;;9.45;3.62;;;39.30;35.40;38.60;101047;;;;562015;251;23103;-76
2023/05/30 05:36:03;;;;;;;17.02;4.75;;;39.90;34.80;38.90;101045;;;;562056;251;23140;-77
2023/05/30 05:38:31;;;;;;;14.18;4.68;;;40.40;35.10;39.10;101056;;;;561899;249;23115;-75
2023/05/30 05:41:01;;;;;;;19.85;4.40;;;40.40;34.20;39.30;101060;;;;561916;250;23140;-76
2023/05/30 05:43:26;;;;;;;11.93;3.35;;;40.50;33.80;39.50;101055;;;;561918;251;23145;-77
2023/05/30 05:45:55;;;;;;;17.33;3.80;;;40.80;33.50;39.90;101061;;;;561809;251;24091;-76
2023/05/30 05:48:23;;;;;;;13.48;4.28;;;41.50;33.90;40.40;101065;;;;558001;250;24171;-75
2023/05/30 05:50:51;;;;;;;23.55;5.07;;;41.50;33.00;40.90;101067;;;;557978;251;24203;-76
2023/05/30 05:53:19;;;;;;;23.87;5.07;;;42.20;33.00;41.30;101062;;;;570187;245;24125;-77
2023/05/30 05:55:47;;;;;;;12.07;3.67;;;42.00;33.20;41.70;101069;;;;561591;251;24196;-75
2023/05/30 05:58:15;;;;;;;14.87;4.93;;;42.60;32.30;41.90;101079;;;;561390;251;23149;-77
2023/05/30 06:00:43;;;;;;;20.10;4.05;;;43.00;32.10;42.40;101078;;;;561765;251;23082;-77
2023/05/30 06:03:12;;;;;;;19.25;5.00;;;43.40;31.70;42.80;101090;;;;561269;250;23150;-76
2023/05/30 06:05:40;;;;;;;13.98;4.10;;;43.80;31.30;43.00;101092;;;;556374;251;35350;-76
2023/05/30 06:08:08;;;;;;;19.23;5.43;;;43.70;30.70;42.90;101096;;;;561328;249;23167;-76
2023/05/30 06:10:36;;;;;;;23.10;6.07;;;43.80;30.90;43.20;101105;;;;561551;251;23096;-75
2023/05/30 06:13:04;;;;;;;9.50;3.58;;;43.80;31.30;43.30;101102;;;;561362;249;23135;-76
2023/05/30 06:15:32;;;;;;;25.15;6.37;;;43.90;31.00;43.30;101095;;;;561338;249;23101;-76
2023/05/30 06:18:00;;;;;;;21.23;5.62;;;44.30;31.00;43.70;101101;;;;561514;250;23086;-77
2023/05/30 06:20:28;;;;;;;10.80;3.35;;;44.20;31.30;44.10;101106;;;;561949;250;23135;-80
2023/05/30 06:22:56;;;;;;;10.50;4.50;;;45.00;29.80;44.40;101105;;;;571462;249;23093;-81
2023/05/30 06:25:26;;;;;;;10.35;4.18;;;45.20;29.70;44.80;101109;;;;562646;249;23146;-79
2023/05/30 06:27:54;;;;;;;13.40;4.40;;;45.50;29.60;45.00;101110;;;;562183;251;23114;-82
2023/05/30 06:30:21;;;;;;;11.30;3.85;;;45.50;30.00;45.30;101112;;;;562181;249;23138;-79
2023/05/30 06:32:49;;;;;;;10.70;3.47;;;46.00;29.10;45.70;101115;;;;562470;249;23172;-78
2023/05/30 06:35:17;;;;;;;13.90;3.20;;;46.00;29.20;45.90;101114;;;;562576;251;23101;-78
2023/05/30 06:37:45;;;;;;;11.18;3.78;;;46.50;27.80;46.10;101117;;;;562624;249;23109;-80
2023/05/30 06:40:13;;;;;;;24.87;6.95;;;46.30;28.40;46.20;101112;;;;562165;249;23157;-82
2023/05/30 06:42:41;;;;;;;24.60;5.53;;;46.70;28.80;46.40;101114;;;;561961;249;23124;-82
2023/05/30 06:45:13;;;;;;;49.10;7.10;;;46.90;28.80;46.60;101110;;;;561615;250;23176;-77
2023/05/30 06:47:37;;;;;;;29.15;5.05;;;47.20;28.70;47.00;101121;;;;561797;248;23117;-74
2023/05/30 06:50:05;;;;;;;27.17;5.40;;;47.60;28.20;47.30;101117;;;;561562;250;23219;-75
2023/05/30 06:52:33;;;;;;;14.52;4.07;;;47.80;27.90;47.50;101110;;;;561833;250;23093;-77
2023/05/30 06:55:01;;;;;;;23.02;5.18;;;48.10;27.90;47.80;101108;;;;561717;251;23125;-76
2023/05/30 06:57:29;;;;;;;22.52;4.25;;;48.20;27.60;47.80;101117;;;;561318;251;23234;-78
2023/05/30 06:59:56;;;;;;;26.80;5.00;;;48.30;27.00;47.80;101120;;;;561306;251;23153;-75
2023/05/30 07:02:26;;;;;;;12.25;2.75;;;48.10;26.80;47.60;101126;;;;561892;250;23144;-77
2023/05/30 07:04:54;;;;;;;16.02;4.10;;;48.00;26.50;47.60;101124;;;;557018;251;46215;-77
2023/05/30 07:07:22;;;;;;;16.98;4.65;;;48.00;27.00;47.80;101122;;;;561728;250;23098;-76
2023/05/30 07:09:50;;;;;;;40.40;5.80;;;48.20;26.80;48.00;101126;;;;562001;249;23095;-77
2023/05/30 07:12:18;;;;;;;29.48;5.75;;;48.60;26.50;48.20;101131;;;;557420;249;35368;-79
2023/05/30 07:14:50;;;;;;;13.68;3.67;;;48.70;26.60;48.40;101130;;;;562142;250;23180;-81
2023/05/30 07:17:17;;;;;;;15.85;4.50;;;48.90;26.10;48.50;101129;;;;561647;250;23097;-81
2023/05/30 07:19:45;;;;;;;25.12;6.55;;;48.90;26.20;48.60;101134;;;;561413;250;23149;-78
2023/05/30 07:22:14;;;;;;;18.92;4.22;;;49.00;26.50;48.70;101129;;;;561666;250;23226;-81
2023/05/30 07:24:43;;;;;;;11.52;3.65;;;49.10;26.30;48.90;101134;;;;561810;251;23115;-79
2023/05/30 07:27:11;;;;;;;20.67;3.60;;;48.90;25.70;48.80;101144;;;;562347;250;23121;-77
2023/05/30 07:29:39;;;;;;;24.75;5.47;;;49.20;25.80;49.20;101136;;;;561739;251;23137;-80
2023/05/30 07:32:07;;;;;;;18.23;4.57;;;49.50;26.30;49.30;101135;;;;562180;250;23104;-81
2023/05/30 07:34:35;;;;;;;20.48;5.05;;;49.70;25.90;49.50;101138;;;;563282;248;23087;-80
2023/05/30 07:37:03;;;;;;;30.45;6.87;;;50.00;26.00;49.80;101142;;;;562817;251;23109;-81
2023/05/30 07:39:31;;;;;;;11.05;3.15;;;50.00;26.30;50.10;101144;;;;562464;251;23114;-77
2023/05/30 07:42:00;;;;;;;16.87;5.03;;;50.50;24.90;50.10;101137;;;;561953;250;23137;-79
2023/05/30 07:44:27;;;;;;;16.05;5.20;;;50.10;24.80;49.40;101144;;;;561634;251;23140;-76
2023/05/30 07:46:55;;;;;;;18.83;4.18;;;49.80;25.40;49.20;101152;;;;562025;251;23113;-79
2023/05/30 07:49:23;;;;;;;22.87;4.97;;;50.70;26.10;49.50;101156;;;;561937;249;23166;-76
2023/05/30 07:51:51;;;;;;;12.27;4.18;;;49.90;25.80;49.70;101163;;;;561886;249;23085;-77
2023/05/30 07:54:19;;;;;;;12.37;3.85;;;49.90;26.20;50.10;101162;;;;561783;250;23163;-76
2023/05/30 07:56:47;;;;;;;12.95;4.12;;;50.50;25.30;50.30;101146;;;;561781;250;23112;-78
2023/05/30 07:59:14;;;;;;;6.25;3.12;;;50.50;25.70;50.40;101151;;;;561762;249;23181;-75
2023/05/30 08:01:45;;;;;;;16.23;4.80;;;51.00;25.50;50.80;101155;;;;561631;251;24151;-78
2023/05/30 08:04:10;;;;;;;15.05;4.28;;;51.20;25.20;50.90;101157;;;;561826;250;23132;-78
2023/05/30 08:06:38;;;;;;;11.32;4.00;;;51.00;25.00;50.60;101158;;;;562073;250;23093;-75
2023/05/30 08:09:06;;;;;;;16.27;4.90;;;50.90;25.30;50.30;101165;;;;561606;251;23179;-76
2023/05/30 08:11:34;;;;;;;15.50;3.72;;;50.60;25.70;50.10;101169;;;;561437;251;23122;-77
2023/05/30 08:14:03;;;;;;;12.35;4.05;;;50.10;25.00;49.70;101175;;;;561337;250;24168;-77
2023/05/30 08:16:30;;;;;;;16.73;4.18;;;50.10;25.40;49.70;101181;;;;561466;249;23140;-77
2023/05/30 08:19:01;;;;;;;19.10;5.47;;;50.00;25.30;49.90;101181;;;;561257;250;23144;-78
2023/05/30 08:21:26;;;;;;;13.38;4.30;;;50.20;25.10;50.10;101183;;;;561205;251;23113;-79
2023/05/30 08:23:54;;;;;;;19.37;5.82;;;50.30;24.90;50.20;101180;;;;561314;251;23106;-78
2023/05/30 08:26:24;;;;;;;17.25;5.78;;;50.60;24.80;50.40;101182;;;;561561;250;23152;-79
2023/05/30 08:28:50;;;;;;;12.02;6.85;;;50.50;24.70;50.20;101177;;;;561327;251;23116;-79
2023/05/30 08:31:21;;;;;;;12.43;6.75;;;50.80;24.80;50.60;101187;;;;561311;249;23105;-79
2023/05/30 08:33:46;;;;;;;256.48;237.38;;;51.40;24.70;51.00;101186;;;;556715;251;35269;-78
2023/05/30 08:36:17;;;;;;;45.72;41.63;;;51.50;25.70;51.00;101188;;;;561869;251;23107;-80
2023/05/30 08:38:42;;;;;;;18.05;15.43;;;51.60;24.30;50.70;101182;;;;574142;250;23157;-77
2023/05/30 08:41:10;;;;;;;31.33;26.87;;;51.40;24.40;50.60;101187;;;;562829;251;24255;-78
2023/05/30 08:43:37;;;;;;;187.30;174.57;;;51.20;25.30;50.30;101189;;;;565485;249;23122;-78
2023/05/30 08:46:06;;;;;;;581.47;539.80;;;51.10;24.30;50.00;101189;;;;563584;251;23159;-80
2023/05/30 08:48:35;;;;;;;802.80;742.37;;;51.20;24.70;50.30;101189;;;;566915;249;23081;-77
2023/05/30 08:51:03;;;;;;;7.05;3.40;;;51.10;25.10;50.40;101194;;;;563542;251;23188;-81
2023/05/30 08:53:34;;;;;;;11.38;3.83;;;51.30;24.80;50.50;101192;;;;566090;245;23115;-81
2023/05/30 08:56:11;;;;;;;86.87;66.32;;;51.70;27.20;50.90;101191;;;;562461;251;23138;-82
2023/05/30 08:58:42;;;;;;;103.75;96.20;;;52.20;24.60;51.50;101190;;;;565131;250;23090;-80
2023/05/30 09:01:13;;;;;;;18.90;4.53;;;52.10;25.00;51.90;101195;;;;563174;251;23121;-79
2023/05/30 09:03:41;;;;;;;20.92;9.98;;;52.50;24.70;51.60;101195;;;;566470;246;23103;-79
2023/05/30 09:06:08;;;;;;;18.05;13.15;;;52.50;24.70;51.50;101204;;;;563110;250;23117;-79
2023/05/30 09:08:36;;;;;;;16.42;6.05;;;52.30;24.70;51.50;101194;;;;566310;250;23150;-77
2023/05/30 09:11:04;;;;;;;15.23;11.18;;;52.50;24.90;51.30;101210;;;;562485;251;23102;-77
2023/05/30 09:13:32;;;;;;;33.42;29.90;;;51.90;24.60;50.50;101208;;;;566063;250;23119;-77
2023/05/30 09:16:04;;;;;;;11.35;4.45;;;51.80;24.80;50.30;101203;;;;562609;250;23153;-81
2023/05/30 09:18:34;;;;;;;23.40;5.47;;;51.10;24.80;50.50;101205;;;;555600;254;23145;-77
2023/05/30 09:21:02;;;;;;;17.87;4.65;;;51.20;25.40;50.80;101210;;;;557850;250;23172;-77
2023/05/30 09:23:30;;;;;;;19.80;5.10;;;51.70;24.70;50.90;101206;;;;573852;249;23143;-78
2023/05/30 09:26:01;;;;;;;12.48;4.15;;;51.70;25.10;51.10;101200;;;;563538;253;23126;-77
2023/05/30 09:28:28;;;;;;;20.37;7.60;;;52.00;24.80;51.40;101196;;;;555676;254;24141;-76
2023/05/30 09:30:56;;;;;;;31.90;29.10;;;52.30;24.70;51.60;101201;;;;566249;251;23168;-78
2023/05/30 09:33:24;;;;;;;16.85;5.20;;;52.80;24.70;51.50;101202;;;;564999;250;23075;-77
2023/05/30 09:35:52;;;;;;;181.95;169.60;;;52.70;24.80;51.50;101201;;;;562777;251;23176;-77
2023/05/30 09:38:23;;;;;;;23.77;17.92;;;52.70;24.80;50.90;101203;;;;565712;250;23121;-76
2023/05/30 09:40:57;;;;;;;17.30;5.72;;;52.40;24.30;51.10;101199;;;;562600;251;25334;-77
2023/05/30 09:43:33;;;;;;;14.32;4.85;;;52.50;24.70;51.60;101197;;;;564911;247;23111;-77
2023/05/30 09:45:58;;;;;;;11.45;3.83;;;52.90;24.80;52.00;101194;;;;562926;251;23199;-79
2023/05/30 09:48:26;;;;;;;21.87;4.57;;;53.50;25.50;52.40;101195;;;;564822;250;23102;-76
2023/05/30 09:50:54;;;;;;;15.30;4.50;;;53.90;24.70;52.40;101203;;;;554563;254;23092;-77
2023/05/30 09:53:23;;;;;;;17.95;4.50;;;53.90;24.20;52.30;101204;;;;557435;251;23122;-79
2023/05/30 09:55:52;;;;;;;22.80;6.00;;;53.10;24.10;50.30;101207;;;;565835;249;23085;-76
2023/05/30 09:58:20;;;;;;;17.73;5.93;;;52.90;24.00;48.60;101220;;;;563632;251;23119;-75
2023/05/30 10:00:54;;;;;;;28.33;6.53;;;50.00;25.10;47.80;101214;;;;566253;250;23078;-75
2023/05/30 10:03:21;;;;;;;17.20;5.80;;;49.30;25.20;47.20;101224;;;;563399;251;23130;-77
2023/05/30 10:05:50;;;;;;;44.35;7.57;;;49.20;25.60;46.60;101218;;;;556063;254;23141;-81
2023/05/30 10:08:20;;;;;;;26.98;6.45;;;47.80;25.80;46.00;101220;;;;562695;251;23092;-80
2023/05/30 10:10:45;;;;;;;12.35;4.10;;;47.10;25.70;45.30;101219;;;;565684;250;23130;-81
2023/05/30 10:13:13;;;;;;;19.30;4.70;;;47.10;26.70;44.30;101224;;;;561657;251;23141;-75
2023/05/30 10:15:41;;;;;;;20.42;4.45;;;46.20;26.90;43.40;101212;;;;565053;248;23126;-76
2023/05/30 10:18:09;;;;;;;23.33;5.70;;;44.10;26.90;42.30;101225;;;;563381;253;23107;-76
2023/05/30 10:20:38;;;;;;;13.18;4.37;;;42.70;27.40;40.60;101227;;;;570201;251;23116;-75
2023/05/30 10:23:08;;;;;;;16.08;4.22;;;41.70;28.00;39.90;101228;;;;564969;250;23089;-74
2023/05/30 10:25:39;;;;;;;13.82;3.72;;;41.70;28.40;38.90;101226;;;;562058;251;23112;-75
2023/05/30 10:28:07;;;;;;;15.75;4.47;;;40.20;29.00;38.70;101229;;;;555027;251;23124;-75
2023/05/30 10:30:35;;;;;;;13.00;3.45;;;40.20;29.40;37.50;101232;;;;562039;251;24139;-76
2023/05/30 10:33:09;;;;;;;16.10;3.95;;;39.40;29.90;36.50;101225;;;;565011;248;23107;-75
2023/05/30 10:35:39;;;;;;;14.32;4.18;;;38.40;31.30;35.30;101229;;;;561720;251;24134;-77
2023/05/30 10:38:05;;;;;;;14.10;3.67;;;35.40;32.30;34.00;101236;;;;565228;250;23079;-76
2023/05/30 10:41:00;;;;;;;13.30;3.62;;;34.20;33.70;32.80;101228;;;;562141;251;23164;-75
2023/05/30 10:43:45;;;;;;;11.73;3.15;;;32.10;35.90;31.40;101222;;;;564921;250;23094;-75
2023/05/30 10:46:19;;;;;;;8.43;3.08;;;30.80;37.30;29.80;101225;;;;555029;255;23152;-73
2023/05/30 10:49:02;;;;;;;8.60;3.00;;;29.00;38.90;28.30;101229;;;;561786;251;23106;-75
2023/05/30 10:51:30;;;;;;;9.20;2.65;;;28.20;41.40;27.40;101228;;;;555325;251;24148;-75
2023/05/30 10:53:58;;;;;;;9.73;2.57;;;27.00;42.80;26.50;101220;;;;561850;251;23101;-74
2023/05/30 10:56:35;;;;;;;8.13;2.28;;;26.20;44.10;25.70;101212;;;;565327;248;23078;-75
2023/05/30 10:59:03;;;;;;;7.13;2.20;;;24.90;44.40;24.90;101219;;;;554372;255;23162;-74
2023/05/30 11:01:34;;;;;;;9.77;2.70;;;24.40;44.50;24.00;101225;;;;554697;254;23130;-76
2023/05/30 11:04:06;;;;;;;9.53;2.30;;;23.70;46.10;23.20;101225;;;;561971;251;23104;-75
2023/05/30 11:06:36;;;;;;;7.40;2.20;;;23.10;49.10;22.50;101226;;;;565476;248;24116;-74
2023/05/30 11:09:08;;;;;;;21.37;3.23;;;22.50;48.70;22.10;101226;;;;563598;248;24088;-76
2023/05/30 11:11:45;;;;;;;7.20;2.43;;;21.90;51.70;21.60;101225;;;;556334;254;24162;-79